Time;durP1;ratioP1;P1;durP2;ratioP2;P2;SDS_P1;SDS_P2;PMS_P1;PMS_P2;Temp;Humidity;BMP_temperature;BMP_pressure;BME280_temperature;BME280_humidity;BME280_pressure;Samples;Min_cycle;Max_cycle;Signal;HPM_P1;HPM_P2
2022/08/03 00:01:06;;;;;;;3.88;2.80;;;23.50;98.90;;;;;;5008061;28;20273;-70
2022/08/03 00:03:33;;;;;;;4.10;3.25;;;23.50;98.90;;;;;;5007633;28;20211;-71
2022/08/03 00:06:06;;;;;;;5.32;3.05;;;23.40;99.00;;;;;;5007788;28;20213;-71
2022/08/03 00:08:33;;;;;;;4.35;3.33;;;23.40;98.90;;;;;;5008110;28;20625;-70
2022/08/03 00:10:59;;;;;;;4.15;3.13;;;23.40;98.80;;;;;;5007724;28;20212;-69
2022/08/03 00:13:26;;;;;;;4.60;2.90;;;23.30;98.80;;;;;;5007885;28;20205;-69
2022/08/03 00:15:54;;;;;;;3.80;3.50;;;23.30;98.80;;;;;;5007742;28;20211;-69
2022/08/03 00:18:21;;;;;;;4.78;3.30;;;23.20;98.90;;;;;;5007661;28;20228;-69
2022/08/03 00:20:48;;;;;;;6.20;3.75;;;23.20;99.10;;;;;;5007048;28;20257;-70
2022/08/03 00:23:16;;;;;;;4.63;3.10;;;23.20;99.30;;;;;;5008055;28;20297;-70
2022/08/03 00:25:43;;;;;;;4.22;3.65;;;23.20;99.40;;;;;;5007360;28;20220;-70
2022/08/03 00:28:10;;;;;;;3.05;2.75;;;23.20;99.50;;;;;;5007787;28;20656;-70
2022/08/03 00:30:37;;;;;;;4.90;3.13;;;23.20;99.70;;;;;;5007704;28;20209;-70
2022/08/03 00:33:04;;;;;;;4.55;3.00;;;23.20;99.70;;;;;;4993407;28;20218;-70
2022/08/03 00:35:31;;;;;;;3.90;3.00;;;23.20;99.90;;;;;;5007369;28;21022;-70
2022/08/03 00:37:58;;;;;;;6.22;3.33;;;23.20;99.90;;;;;;5007913;28;20212;-70
2022/08/03 00:40:27;;;;;;;4.38;3.33;;;23.20;99.90;;;;;;5007343;28;20367;-70
2022/08/03 00:42:55;;;;;;;5.15;3.08;;;23.10;99.90;;;;;;5007812;28;20404;-70
2022/08/03 00:45:24;;;;;;;7.28;3.72;;;23.20;99.90;;;;;;5005320;28;20216;-70
2022/08/03 00:47:51;;;;;;;4.00;3.13;;;23.20;99.90;;;;;;4988167;28;20211;-70
2022/08/03 00:50:19;;;;;;;7.25;3.20;;;23.10;99.90;;;;;;4987874;28;20217;-70
2022/08/03 00:52:47;;;;;;;3.53;3.08;;;23.10;99.90;;;;;;4996440;28;20219;-70
2022/08/03 00:55:14;;;;;;;5.35;2.88;;;23.10;99.90;;;;;;5007314;28;20206;-70
2022/08/03 00:57:43;;;;;;;3.97;3.08;;;23.10;99.90;;;;;;5009412;28;20257;-70
2022/08/03 01:00:12;;;;;;;5.88;3.10;;;23.10;99.90;;;;;;5010460;28;20204;-70
2022/08/03 01:02:40;;;;;;;4.75;3.05;;;23.10;99.90;;;;;;5011091;28;20220;-70
2022/08/03 01:05:08;;;;;;;3.63;3.00;;;23.10;99.90;;;;;;5011084;28;20271;-70
2022/08/03 01:07:44;;;;;;;5.85;2.72;;;23.10;99.90;;;;;;5001493;28;20296;-70
2022/08/03 01:10:20;;;;;;;5.18;3.10;;;23.10;99.90;;;;;;4991426;28;20202;-70
2022/08/03 01:12:57;;;;;;;3.45;3.10;;;23.00;99.90;;;;;;4991499;28;20209;-70
2022/08/03 01:15:34;;;;;;;3.00;2.70;;;23.10;99.80;;;;;;5006954;28;20198;-70
2022/08/03 01:18:09;;;;;;;3.45;2.90;;;23.10;99.90;;;;;;5010905;28;20194;-70
2022/08/03 01:20:40;;;;;;;4.47;2.83;;;23.10;99.90;;;;;;5010761;28;20216;-70
2022/08/03 01:23:20;;;;;;;3.67;3.22;;;23.10;99.90;;;;;;5010755;28;20209;-71
2022/08/03 01:26:05;;;;;;;4.22;3.10;;;23.10;98.70;;;;;;5010835;28;20201;-70
2022/08/03 01:29:11;;;;;;;3.15;2.85;;;23.10;98.40;;;;;;5009050;28;20221;-69
2022/08/03 01:31:44;;;;;;;5.43;3.33;;;23.10;97.90;;;;;;5010966;28;20539;-70
2022/08/03 01:34:14;;;;;;;3.22;3.00;;;23.10;97.20;;;;;;5010553;28;20237;-70
2022/08/03 01:36:48;;;;;;;3.63;3.30;;;23.10;96.70;;;;;;5010487;28;20570;-70
2022/08/03 01:39:16;;;;;;;4.03;2.92;;;23.10;96.80;;;;;;5010625;28;20198;-69
2022/08/03 01:41:48;;;;;;;5.05;3.15;;;23.10;96.60;;;;;;5010125;28;20241;-72
2022/08/03 01:44:16;;;;;;;3.58;3.08;;;23.10;96.50;;;;;;5010688;28;20224;-70
2022/08/03 01:46:48;;;;;;;3.97;2.97;;;23.10;96.70;;;;;;5010159;28;20211;-69
2022/08/03 01:49:16;;;;;;;3.20;3.00;;;23.20;96.90;;;;;;5010168;28;20194;-69
2022/08/03 01:51:47;;;;;;;3.67;3.30;;;23.20;96.90;;;;;;5009983;28;20220;-70
2022/08/03 01:54:14;;;;;;;3.67;3.47;;;23.20;97.00;;;;;;5010065;28;20300;-69
2022/08/03 01:56:43;;;;;;;3.40;3.10;;;23.20;97.20;;;;;;4995716;28;20644;-69
2022/08/03 01:59:14;;;;;;;3.88;3.58;;;23.20;97.30;;;;;;4990973;28;20210;-71
2022/08/03 02:01:42;;;;;;;3.50;3.30;;;23.20;97.50;;;;;;4990225;28;20218;-71
2022/08/03 02:04:14;;;;;;;3.67;3.42;;;23.20;97.50;;;;;;4990621;28;20206;-71
2022/08/03 02:06:42;;;;;;;4.32;4.03;;;23.20;97.50;;;;;;4990378;28;20194;-72
2022/08/03 02:09:10;;;;;;;3.72;3.42;;;23.20;97.40;;;;;;4989945;28;20206;-72
2022/08/03 02:11:38;;;;;;;4.15;3.70;;;23.20;97.10;;;;;;4989803;28;20688;-72
2022/08/03 02:14:06;;;;;;;3.75;3.45;;;23.20;96.80;;;;;;4990649;28;20252;-72
2022/08/03 02:16:34;;;;;;;4.82;3.80;;;23.20;96.70;;;;;;4990041;28;20217;-70
2022/08/03 02:19:04;;;;;;;6.82;3.83;;;23.30;96.80;;;;;;4989720;28;20224;-69
2022/08/03 02:21:35;;;;;;;3.55;3.35;;;23.30;96.90;;;;;;5003242;28;20230;-69
2022/08/03 02:24:03;;;;;;;4.22;3.83;;;23.30;97.00;;;;;;5022952;28;20225;-71
2022/08/03 02:26:31;;;;;;;3.78;3.42;;;23.30;97.10;;;;;;5020485;28;20193;-70
2022/08/03 02:29:03;;;;;;;4.03;3.60;;;23.30;97.00;;;;;;5019419;28;20201;-70
2022/08/03 02:31:33;;;;;;;3.75;3.40;;;23.30;97.00;;;;;;5017163;28;20224;-69
2022/08/03 02:34:03;;;;;;;4.57;3.47;;;23.30;96.80;;;;;;5027091;28;20324;-69
2022/08/03 02:36:36;;;;;;;4.25;3.88;;;23.30;96.50;;;;;;5016561;28;20205;-70
2022/08/03 02:39:04;;;;;;;3.88;3.47;;;23.30;96.20;;;;;;4988451;28;20203;-69
2022/08/03 02:41:35;;;;;;;4.13;3.40;;;23.30;96.20;;;;;;4987627;28;20281;-70
2022/08/03 02:44:07;;;;;;;4.20;3.53;;;23.30;96.30;;;;;;4987506;28;20215;-70
2022/08/03 02:46:37;;;;;;;3.42;3.22;;;23.30;96.60;;;;;;4987679;28;20575;-70
2022/08/03 02:49:05;;;;;;;3.88;3.47;;;23.20;97.20;;;;;;4987683;28;20210;-70
2022/08/03 02:51:36;;;;;;;3.72;3.33;;;23.20;97.40;;;;;;5012789;28;20232;-71
2022/08/03 02:54:04;;;;;;;4.20;3.90;;;23.20;97.50;;;;;;5015048;28;20586;-71
2022/08/03 02:56:32;;;;;;;4.15;3.85;;;23.10;97.40;;;;;;5016021;28;20867;-70
2022/08/03 02:58:59;;;;;;;3.58;3.28;;;23.10;97.40;;;;;;5021928;28;20209;-69
2022/08/03 03:01:28;;;;;;;5.82;3.80;;;23.10;97.50;;;;;;5026144;28;20236;-70
2022/08/03 03:03:57;;;;;;;8.48;3.83;;;23.10;97.60;;;;;;5026369;28;20295;-69
2022/08/03 03:06:25;;;;;;;4.90;3.75;;;23.10;97.50;;;;;;5023063;28;20208;-68
2022/08/03 03:08:54;;;;;;;6.43;3.70;;;23.10;97.30;;;;;;5021790;28;20205;-69
2022/08/03 03:11:22;;;;;;;3.70;3.40;;;23.10;96.90;;;;;;5003938;28;20212;-69
2022/08/03 03:13:50;;;;;;;4.63;3.70;;;23.10;97.10;;;;;;5007144;28;20217;-69
2022/08/03 03:16:19;;;;;;;4.32;3.58;;;23.10;97.10;;;;;;5007508;28;20213;-69
2022/08/03 03:18:48;;;;;;;5.30;3.42;;;23.10;97.10;;;;;;5007286;28;20954;-69
2022/08/03 03:21:18;;;;;;;3.67;3.47;;;23.10;97.10;;;;;;5006594;28;20760;-69
2022/08/03 03:23:46;;;;;;;5.25;3.55;;;23.10;97.30;;;;;;5008157;28;20217;-69
2022/08/03 03:26:15;;;;;;;3.58;3.35;;;23.00;97.30;;;;;;5008027;28;20220;-69
2022/08/03 03:28:42;;;;;;;4.07;3.40;;;23.00;97.40;;;;;;5008197;28;20220;-69
2022/08/03 03:31:09;;;;;;;3.08;2.85;;;23.00;97.60;;;;;;5008326;28;20209;-69
2022/08/03 03:33:38;;;;;;;3.25;2.95;;;23.00;97.70;;;;;;5007983;28;20251;-69
2022/08/03 03:36:08;;;;;;;3.00;2.80;;;23.00;97.80;;;;;;5007782;28;20209;-69
2022/08/03 03:38:35;;;;;;;4.80;2.97;;;23.00;97.80;;;;;;5007809;28;20630;-69
2022/08/03 03:41:04;;;;;;;3.97;2.90;;;23.00;97.90;;;;;;5007883;28;20588;-69
2022/08/03 03:43:32;;;;;;;3.15;2.70;;;22.90;97.80;;;;;;5007983;28;20296;-69
2022/08/03 03:46:00;;;;;;;4.10;3.00;;;22.90;97.80;;;;;;5008019;28;20582;-69
2022/08/03 03:48:27;;;;;;;3.75;3.00;;;22.90;97.90;;;;;;5007904;28;20205;-69
2022/08/03 03:50:56;;;;;;;3.40;3.17;;;22.90;98.00;;;;;;5007857;28;20209;-69
2022/08/03 03:53:24;;;;;;;3.95;2.80;;;23.00;98.20;;;;;;5007861;28;20279;-69
2022/08/03 03:55:52;;;;;;;5.90;2.80;;;23.00;98.40;;;;;;5007756;28;20210;-68
2022/08/03 03:58:20;;;;;;;4.15;2.50;;;23.00;98.50;;;;;;5007888;28;20300;-69
2022/08/03 04:00:49;;;;;;;3.13;2.70;;;23.00;98.30;;;;;;5007810;28;20216;-69
2022/08/03 04:03:15;;;;;;;2.78;2.50;;;23.10;98.40;;;;;;5007547;28;20236;-69
2022/08/03 04:11:15;;;;;;;2.92;2.50;;;23.00;98.60;;;;;;5007425;28;20197;-69
2022/08/03 04:13:47;;;;;;;3.70;2.97;;;23.00;98.80;;;;;;5008166;28;20232;-69
2022/08/03 04:16:17;;;;;;;3.20;2.63;;;23.00;98.90;;;;;;5007756;28;20193;-69
2022/08/03 04:18:48;;;;;;;3.63;2.50;;;23.00;99.00;;;;;;5007809;28;20221;-69
2022/08/03 04:21:16;;;;;;;2.90;2.70;;;23.00;98.70;;;;;;5007813;28;20667;-69
2022/08/03 04:23:46;;;;;;;2.67;2.47;;;23.00;98.50;;;;;;5007823;28;20217;-69
2022/08/03 04:26:16;;;;;;;2.95;2.42;;;23.00;98.50;;;;;;5007434;28;20213;-69
2022/08/03 04:28:46;;;;;;;3.28;2.50;;;23.00;98.60;;;;;;5007469;28;20201;-69
2022/08/03 04:31:15;;;;;;;2.67;2.40;;;22.90;98.60;;;;;;5008077;28;20201;-69
2022/08/03 04:33:44;;;;;;;2.42;2.22;;;22.90;98.60;;;;;;5011370;28;20291;-69
2022/08/03 04:36:15;;;;;;;3.20;2.50;;;23.00;98.50;;;;;;5011480;28;20225;-69
2022/08/03 04:38:54;;;;;;;4.45;2.75;;;23.00;98.30;;;;;;5011414;28;20204;-69
2022/08/03 04:41:22;;;;;;;2.50;2.20;;;23.00;98.40;;;;;;5011224;28;20202;-69
2022/08/03 04:43:53;;;;;;;4.10;2.40;;;23.00;98.50;;;;;;5011382;28;20209;-68
2022/08/03 04:46:23;;;;;;;3.42;2.75;;;23.00;98.90;;;;;;5011254;28;20641;-69
2022/08/03 04:48:50;;;;;;;2.25;2.15;;;23.00;98.90;;;;;;5011099;28;20211;-69
2022/08/03 04:51:17;;;;;;;4.13;2.40;;;23.00;98.80;;;;;;5011313;28;20206;-69
2022/08/03 04:53:44;;;;;;;2.45;2.25;;;23.00;98.70;;;;;;5011001;28;20220;-69
2022/08/03 04:56:11;;;;;;;3.53;2.63;;;23.00;98.40;;;;;;5010351;28;20337;-69
2022/08/03 04:58:38;;;;;;;4.07;2.83;;;22.90;98.50;;;;;;5010925;28;20190;-69
2022/08/03 05:01:07;;;;;;;3.40;2.55;;;22.90;98.70;;;;;;5011080;28;20210;-69
2022/08/03 05:03:35;;;;;;;2.80;1.80;;;22.80;98.80;;;;;;5010626;28;20236;-69
2022/08/03 05:06:06;;;;;;;2.65;2.30;;;22.90;99.00;;;;;;5003215;28;20210;-69
2022/08/03 05:08:32;;;;;;;2.60;2.40;;;22.90;99.00;;;;;;4991244;28;20295;-69
2022/08/03 05:10:59;;;;;;;2.30;2.10;;;22.90;98.90;;;;;;4991215;28;20214;-69
2022/08/03 05:13:26;;;;;;;3.47;1.80;;;22.90;98.70;;;;;;4991359;28;20221;-69
2022/08/03 05:15:53;;;;;;;2.75;2.50;;;22.80;98.70;;;;;;4991148;28;20202;-69
2022/08/03 05:18:20;;;;;;;2.40;2.17;;;22.80;98.50;;;;;;4991119;28;20209;-68
2022/08/03 05:20:48;;;;;;;5.90;2.28;;;22.80;98.50;;;;;;4991178;28;20252;-69
2022/08/03 05:23:15;;;;;;;2.50;2.22;;;22.80;99.10;;;;;;4995176;28;20229;-69
2022/08/03 05:25:42;;;;;;;2.95;2.10;;;22.80;98.70;;;;;;5010295;28;20224;-69
2022/08/03 05:28:09;;;;;;;3.35;2.30;;;22.80;98.80;;;;;;5010465;28;20213;-69
2022/08/03 05:30:37;;;;;;;3.50;2.25;;;22.80;98.70;;;;;;5010469;28;20206;-69
2022/08/03 05:33:04;;;;;;;2.40;2.10;;;22.80;99.00;;;;;;5010365;28;20213;-69
2022/08/03 05:35:31;;;;;;;3.13;2.10;;;22.90;99.00;;;;;;5010522;28;20229;-69
2022/08/03 05:37:59;;;;;;;6.20;2.00;;;23.00;98.70;;;;;;5010313;28;20605;-69
2022/08/03 05:40:26;;;;;;;3.72;1.88;;;23.00;98.10;;;;;;5009959;28;20209;-69
2022/08/03 05:42:53;;;;;;;2.38;1.90;;;23.00;97.70;;;;;;5009469;28;20550;-69
2022/08/03 05:45:19;;;;;;;1.90;1.80;;;23.10;97.30;;;;;;5009872;28;20220;-69
2022/08/03 05:47:46;;;;;;;3.67;1.90;;;23.00;97.40;;;;;;5009789;28;20673;-69
2022/08/03 05:50:14;;;;;;;2.60;1.90;;;23.00;97.60;;;;;;5010011;28;20209;-69
2022/08/03 05:52:42;;;;;;;2.00;1.88;;;23.10;97.60;;;;;;5010027;28;20213;-69
2022/08/03 05:55:12;;;;;;;2.25;2.10;;;23.10;97.70;;;;;;5009756;28;20210;-69
2022/08/03 05:57:40;;;;;;;2.20;2.00;;;23.10;98.00;;;;;;5009347;28;20237;-69
2022/08/03 06:00:09;;;;;;;2.00;1.83;;;23.10;98.30;;;;;;5009452;28;20206;-69
2022/08/03 06:02:36;;;;;;;2.20;2.00;;;23.20;98.40;;;;;;5009931;28;20240;-69
2022/08/03 06:05:03;;;;;;;3.17;1.90;;;23.30;98.20;;;;;;5009704;28;20672;-69
2022/08/03 06:07:30;;;;;;;2.55;1.73;;;23.20;97.80;;;;;;5009858;28;20212;-69
2022/08/03 06:09:56;;;;;;;2.53;2.10;;;23.20;97.90;;;;;;5009861;28;20201;-69
2022/08/03 06:12:25;;;;;;;2.20;1.98;;;23.20;98.00;;;;;;5009413;28;20223;-69
2022/08/03 06:14:51;;;;;;;1.98;1.73;;;23.30;98.30;;;;;;5009915;28;20202;-69
2022/08/03 06:17:18;;;;;;;2.05;1.95;;;23.30;98.40;;;;;;5009514;28;20205;-69
2022/08/03 06:19:45;;;;;;;1.85;1.70;;;23.30;98.40;;;;;;5010012;28;20218;-69
2022/08/03 06:22:15;;;;;;;2.75;2.15;;;23.30;98.20;;;;;;5009455;28;20664;-69
2022/08/03 06:24:43;;;;;;;3.08;1.80;;;23.30;98.40;;;;;;5009475;28;20215;-69
2022/08/03 06:27:11;;;;;;;2.08;1.88;;;23.40;98.90;;;;;;5008843;28;20209;-69
2022/08/03 06:29:39;;;;;;;1.90;1.80;;;23.40;99.00;;;;;;5009582;28;20227;-69
2022/08/03 06:32:06;;;;;;;3.42;1.98;;;23.40;98.90;;;;;;5009707;28;20205;-69
2022/08/03 06:34:33;;;;;;;3.92;2.00;;;23.50;99.00;;;;;;5009479;28;20240;-69
2022/08/03 06:36:59;;;;;;;2.17;2.00;;;23.50;98.90;;;;;;5009189;28;20206;-69
2022/08/03 06:39:27;;;;;;;2.70;1.70;;;23.50;98.70;;;;;;5009231;28;20725;-69
2022/08/03 06:41:53;;;;;;;1.90;1.80;;;23.50;98.60;;;;;;5008677;28;20205;-69
2022/08/03 06:44:20;;;;;;;2.55;1.98;;;23.60;98.80;;;;;;5008794;28;20718;-69
2022/08/03 06:46:49;;;;;;;3.20;1.80;;;23.60;99.00;;;;;;5008790;28;20755;-69
2022/08/03 06:49:16;;;;;;;2.35;1.90;;;23.60;98.70;;;;;;5009013;28;20220;-69
2022/08/03 06:51:43;;;;;;;2.47;1.98;;;23.70;98.70;;;;;;5008698;28;20205;-69
2022/08/03 06:54:11;;;;;;;4.20;2.05;;;23.70;98.30;;;;;;5008413;28;20219;-69
2022/08/03 06:56:37;;;;;;;3.08;1.95;;;23.70;98.20;;;;;;5007884;28;20264;-69
2022/08/03 06:59:04;;;;;;;3.42;2.13;;;23.70;98.40;;;;;;5008828;28;20213;-69
2022/08/03 07:01:31;;;;;;;3.08;1.90;;;23.80;98.50;;;;;;5008283;28;20209;-69
2022/08/03 07:04:00;;;;;;;3.22;2.08;;;23.80;98.30;;;;;;5008678;28;20261;-69
2022/08/03 07:06:27;;;;;;;1.98;1.88;;;23.80;98.40;;;;;;5008572;28;20209;-69
2022/08/03 07:08:54;;;;;;;2.05;1.88;;;23.90;98.70;;;;;;5008470;28;20215;-69
2022/08/03 07:11:20;;;;;;;10.07;2.42;;;23.90;98.60;;;;;;5008432;28;20212;-69
2022/08/03 07:13:47;;;;;;;4.18;2.47;;;24.00;98.40;;;;;;5008601;28;20236;-69
2022/08/03 07:16:14;;;;;;;3.80;2.15;;;24.00;98.10;;;;;;5008675;28;20292;-69
2022/08/03 07:18:41;;;;;;;2.50;1.63;;;24.10;98.10;;;;;;5008309;28;20235;-69
2022/08/03 07:21:11;;;;;;;2.65;1.73;;;24.10;98.00;;;;;;5008638;28;20253;-69
2022/08/03 07:23:38;;;;;;;2.17;2.00;;;24.20;97.90;;;;;;5008330;28;20237;-69
2022/08/03 07:26:07;;;;;;;3.25;1.92;;;24.20;98.10;;;;;;5007891;28;20798;-69
2022/08/03 07:28:34;;;;;;;2.38;1.88;;;24.20;98.10;;;;;;5008052;28;20212;-69
2022/08/03 07:31:01;;;;;;;4.13;1.75;;;24.30;98.60;;;;;;5008407;28;20209;-69
2022/08/03 07:33:28;;;;;;;3.22;1.92;;;24.30;98.00;;;;;;5008157;28;20308;-69
2022/08/03 07:35:55;;;;;;;3.53;1.83;;;24.40;98.40;;;;;;5008414;28;20223;-69
2022/08/03 07:38:23;;;;;;;2.97;1.65;;;24.40;98.70;;;;;;5008208;28;20208;-69
2022/08/03 07:40:50;;;;;;;2.72;2.05;;;24.50;98.70;;;;;;5007638;28;20657;-68
2022/08/03 07:43:17;;;;;;;4.90;1.88;;;24.60;98.60;;;;;;5008192;28;20328;-68
2022/08/03 07:45:44;;;;;;;3.17;1.90;;;24.60;97.70;;;;;;5008167;28;20597;-69
2022/08/03 07:48:10;;;;;;;4.43;1.77;;;24.70;97.40;;;;;;5007750;28;20209;-68
2022/08/03 07:50:37;;;;;;;2.03;1.70;;;24.80;97.70;;;;;;5007826;28;20576;-69
2022/08/03 07:53:04;;;;;;;2.38;2.00;;;24.90;97.80;;;;;;5008069;28;20213;-69
2022/08/03 07:55:33;;;;;;;3.97;2.00;;;25.00;96.90;;;;;;5007609;28;20592;-69
2022/08/03 07:58:06;;;;;;;2.70;1.92;;;25.00;96.80;;;;;;5007573;28;20283;-69
2022/08/03 08:00:33;;;;;;;3.58;1.98;;;25.00;97.00;;;;;;5007995;28;20698;-69
2022/08/03 08:03:00;;;;;;;2.15;1.95;;;25.20;97.20;;;;;;5007823;28;20339;-69
2022/08/03 08:05:28;;;;;;;5.78;2.20;;;25.20;97.30;;;;;;5007830;28;20371;-69
2022/08/03 08:07:55;;;;;;;3.58;1.83;;;25.30;97.00;;;;;;5007380;28;20217;-69
2022/08/03 08:10:22;;;;;;;3.65;1.90;;;25.30;97.30;;;;;;5007505;28;20650;-69
2022/08/03 08:12:50;;;;;;;2.97;1.60;;;25.40;97.00;;;;;;5007918;28;20565;-69
2022/08/03 08:15:17;;;;;;;2.28;1.65;;;25.40;97.30;;;;;;5007863;28;20343;-69
2022/08/03 08:17:46;;;;;;;3.15;2.00;;;25.50;97.10;;;;;;5007478;28;20201;-70
2022/08/03 08:20:17;;;;;;;2.88;1.88;;;25.50;98.00;;;;;;5008038;28;20291;-69
2022/08/03 08:22:44;;;;;;;1.73;1.63;;;25.60;97.70;;;;;;5007780;28;20225;-69
2022/08/03 08:25:11;;;;;;;3.95;1.88;;;25.60;97.30;;;;;;4988223;28;20357;-69
2022/08/03 08:27:42;;;;;;;2.92;1.77;;;25.70;95.60;;;;;;4987875;28;20217;-70
2022/08/03 08:30:12;;;;;;;1.88;1.77;;;25.70;95.80;;;;;;4988338;28;20210;-69
2022/08/03 08:32:39;;;;;;;2.55;1.90;;;25.80;94.50;;;;;;4988226;28;20202;-69
2022/08/03 08:35:07;;;;;;;1.88;1.77;;;25.80;94.10;;;;;;4987687;28;20325;-69
2022/08/03 08:37:35;;;;;;;3.53;2.00;;;25.80;93.00;;;;;;4987584;28;20297;-69
2022/08/03 08:40:02;;;;;;;1.85;1.40;;;25.90;93.30;;;;;;4987666;28;20206;-69
2022/08/03 08:42:28;;;;;;;4.32;1.70;;;26.00;94.10;;;;;;4987291;28;20216;-69
2022/08/03 08:44:55;;;;;;;3.03;1.83;;;26.10;93.70;;;;;;4987931;28;20261;-68
2022/08/03 08:47:26;;;;;;;2.65;1.77;;;26.10;94.40;;;;;;4988076;28;20218;-68
2022/08/03 08:49:54;;;;;;;1.92;1.80;;;26.20;93.30;;;;;;4988016;28;20217;-68
2022/08/03 08:52:25;;;;;;;1.80;1.70;;;26.30;94.60;;;;;;4987830;28;20582;-69
2022/08/03 08:54:55;;;;;;;4.03;1.70;;;26.40;94.90;;;;;;5005173;28;20213;-69
2022/08/03 08:57:24;;;;;;;3.28;2.00;;;26.50;95.10;;;;;;5006872;28;20240;-69
2022/08/03 08:59:53;;;;;;;1.70;1.60;;;26.60;94.20;;;;;;5007603;28;20210;-68
2022/08/03 09:02:20;;;;;;;2.85;1.75;;;26.60;93.20;;;;;;5007466;28;20260;-68
2022/08/03 09:04:48;;;;;;;2.67;1.75;;;26.70;93.60;;;;;;5007141;28;20244;-69
2022/08/03 09:07:16;;;;;;;3.95;2.08;;;26.70;92.50;;;;;;5007391;28;20213;-69
2022/08/03 09:09:43;;;;;;;2.78;2.00;;;26.80;92.40;;;;;;5006916;28;20213;-69
2022/08/03 09:12:10;;;;;;;1.83;1.73;;;26.80;92.00;;;;;;5006785;28;20677;-69
2022/08/03 09:14:37;;;;;;;1.60;1.50;;;26.80;92.70;;;;;;5006993;28;20212;-69
2022/08/03 09:17:04;;;;;;;2.97;1.95;;;26.90;92.10;;;;;;5007242;28;20217;-69
2022/08/03 09:19:32;;;;;;;1.80;1.70;;;26.90;92.20;;;;;;5008715;28;20244;-69
2022/08/03 09:22:12;;;;;;;1.75;1.60;;;27.10;92.90;;;;;;5010443;28;20292;-69
2022/08/03 09:24:54;;;;;;;2.17;1.60;;;27.20;92.70;;;;;;5009967;28;20225;-69
2022/08/03 09:27:21;;;;;;;1.83;1.73;;;27.20;92.30;;;;;;5010272;28;20281;-69
2022/08/03 09:29:49;;;;;;;1.83;1.73;;;27.20;92.40;;;;;;5010212;28;20205;-69
2022/08/03 09:32:19;;;;;;;2.28;1.77;;;27.20;91.90;;;;;;5010412;28;20209;-69
2022/08/03 09:34:47;;;;;;;1.90;1.80;;;27.20;92.00;;;;;;5010285;28;20268;-69
2022/08/03 09:37:16;;;;;;;1.90;1.80;;;27.20;91.20;;;;;;5010476;28;20207;-69
2022/08/03 09:39:44;;;;;;;2.40;1.50;;;27.20;91.00;;;;;;5010172;28;20205;-68
2022/08/03 09:42:13;;;;;;;1.77;1.67;;;27.20;91.10;;;;;;5009816;28;20680;-69
2022/08/03 09:44:41;;;;;;;2.55;1.70;;;27.30;91.80;;;;;;5010046;28;20237;-69
2022/08/03 09:47:09;;;;;;;12.60;3.00;;;27.40;92.80;;;;;;5010048;28;20205;-69
2022/08/03 09:49:36;;;;;;;2.28;1.60;;;27.50;92.30;;;;;;5009768;28;20738;-69
2022/08/03 09:52:13;;;;;;;2.15;1.55;;;27.60;91.90;;;;;;5010373;28;20545;-69
2022/08/03 09:54:42;;;;;;;2.67;1.73;;;27.70;91.30;;;;;;5009936;28;20219;-69
2022/08/03 09:57:19;;;;;;;6.30;1.80;;;27.70;90.90;;;;;;5009609;28;20248;-69
2022/08/03 09:59:46;;;;;;;2.20;1.80;;;27.70;91.70;;;;;;5010075;28;20276;-69
2022/08/03 10:02:22;;;;;;;2.35;1.77;;;27.80;91.50;;;;;;5010258;28;20206;-69
2022/08/03 10:04:51;;;;;;;2.03;1.65;;;27.80;92.20;;;;;;5009965;28;20217;-69
2022/08/03 10:07:18;;;;;;;2.85;1.70;;;27.90;91.50;;;;;;5009902;28;20209;-69
2022/08/03 10:09:56;;;;;;;1.90;1.80;;;28.00;90.00;;;;;;5009417;28;20590;-69
2022/08/03 10:12:23;;;;;;;4.13;1.70;;;28.00;90.40;;;;;;5009799;28;20202;-69
2022/08/03 10:14:51;;;;;;;2.55;1.75;;;28.00;90.20;;;;;;5009844;28;20715;-69
2022/08/03 10:17:18;;;;;;;2.28;1.88;;;28.10;91.00;;;;;;5009578;28;20213;-69
2022/08/03 10:19:45;;;;;;;2.08;1.92;;;28.10;93.10;;;;;;5009226;28;20205;-69
2022/08/03 10:22:13;;;;;;;1.92;1.83;;;28.10;92.80;;;;;;5009780;28;20228;-69
2022/08/03 10:24:48;;;;;;;1.70;1.40;;;28.10;92.50;;;;;;5009498;28;20248;-69
2022/08/03 10:27:19;;;;;;;1.90;1.80;;;28.20;90.40;;;;;;5009125;28;20233;-69
2022/08/03 10:29:52;;;;;;;1.85;1.67;;;28.20;90.40;;;;;;5009079;28;20217;-69
2022/08/03 10:32:25;;;;;;;1.80;1.70;;;28.20;90.60;;;;;;5009579;28;20197;-69
2022/08/03 10:34:59;;;;;;;1.75;1.42;;;28.10;90.80;;;;;;5009334;28;20830;-69
2022/08/03 10:37:31;;;;;;;1.90;1.80;;;28.10;90.80;;;;;;5009417;28;20458;-69
2022/08/03 10:40:00;;;;;;;2.45;1.80;;;28.10;91.10;;;;;;5009316;28;20193;-69
2022/08/03 10:42:31;;;;;;;2.42;1.90;;;28.30;90.60;;;;;;5008959;28;20237;-69
2022/08/03 10:45:03;;;;;;;1.67;1.58;;;28.30;91.30;;;;;;5009244;28;20228;-69
2022/08/03 10:47:31;;;;;;;2.17;1.58;;;28.40;91.00;;;;;;5009489;28;20193;-69
2022/08/03 10:49:58;;;;;;;3.00;1.65;;;28.60;90.50;;;;;;5009100;28;20212;-69
2022/08/03 10:52:25;;;;;;;1.80;1.60;;;28.70;90.10;;;;;;5008967;28;20220;-69
2022/08/03 10:57:45;;;;;;;2.00;1.80;;;28.80;90.60;;;;;;5008331;28;20240;-69
2022/08/03 11:00:13;;;;;;;1.70;1.48;;;28.80;91.40;;;;;;5008742;28;20209;-69
2022/08/03 11:03:03;;;;;;;4.93;1.65;;;28.90;90.30;;;;;;5008796;28;20205;-69
2022/08/03 11:05:31;;;;;;;2.72;1.73;;;29.10;88.90;;;;;;5008302;28;20708;-69
2022/08/03 11:08:20;;;;;;;1.77;1.67;;;29.10;90.50;;;;;;5008857;28;20215;-69
2022/08/03 11:10:48;;;;;;;2.15;1.83;;;29.20;88.80;;;;;;5008313;28;20213;-69
2022/08/03 11:13:18;;;;;;;2.10;2.00;;;29.20;90.00;;;;;;5008396;28;20426;-69
2022/08/03 11:15:47;;;;;;;1.70;1.60;;;29.20;89.30;;;;;;5008717;28;20197;-69
2022/08/03 11:18:15;;;;;;;1.77;1.67;;;29.20;89.90;;;;;;5008620;28;20213;-69
2022/08/03 11:20:50;;;;;;;2.03;1.80;;;29.30;88.70;;;;;;5008456;28;20211;-69
2022/08/03 11:23:19;;;;;;;1.90;1.80;;;29.30;89.40;;;;;;5008413;28;20205;-69
2022/08/03 11:26:14;;;;;;;1.70;1.60;;;29.40;87.90;;;;;;5008037;28;20248;-69
2022/08/03 11:28:43;;;;;;;2.78;1.50;;;29.50;88.20;;;;;;4962160;28;20220;-70
2022/08/03 11:31:47;;;;;;;1.77;1.67;;;29.60;89.00;;;;;;5008608;28;20300;-70
2022/08/03 11:34:16;;;;;;;1.73;1.63;;;29.70;89.70;;;;;;5007918;28;20974;-70
2022/08/03 11:37:24;;;;;;;2.60;1.60;;;29.80;90.90;;;;;;5008451;28;20205;-70
2022/08/03 11:39:55;;;;;;;3.70;1.75;;;29.80;90.50;;;;;;5008144;28;20289;-70
2022/08/03 11:42:43;;;;;;;3.53;1.90;;;29.80;90.00;;;;;;5007149;28;20204;-70
2022/08/03 11:45:12;;;;;;;1.77;1.50;;;29.80;90.00;;;;;;5007953;28;20691;-71
2022/08/03 11:47:40;;;;;;;3.58;2.00;;;29.90;88.40;;;;;;5007915;28;20313;-70
2022/08/03 11:50:07;;;;;;;2.08;1.50;;;29.90;90.10;;;;;;5008164;28;20209;-70
2022/08/03 11:52:37;;;;;;;4.63;1.70;;;29.90;88.50;;;;;;5007784;28;20201;-70
2022/08/03 11:55:12;;;;;;;2.00;1.67;;;29.90;90.20;;;;;;5007860;28;20216;-70
2022/08/03 11:57:39;;;;;;;3.15;1.90;;;29.90;90.40;;;;;;5007196;28;20320;-70
2022/08/03 12:00:28;;;;;;;2.05;1.85;;;30.00;88.40;;;;;;5007599;28;20629;-70
2022/08/03 12:02:57;;;;;;;2.00;1.90;;;30.00;89.80;;;;;;5007577;28;20578;-70
2022/08/03 12:05:37;;;;;;;2.00;1.90;;;30.00;88.70;;;;;;5007682;28;20293;-70
2022/08/03 12:08:04;;;;;;;3.47;1.67;;;30.10;89.70;;;;;;5007822;28;20570;-70
2022/08/03 12:10:32;;;;;;;2.13;2.03;;;30.10;88.30;;;;;;5007355;28;20209;-70
2022/08/03 12:13:00;;;;;;;3.13;2.00;;;30.20;89.30;;;;;;5007698;28;20292;-70
2022/08/03 12:15:30;;;;;;;4.85;1.80;;;30.20;87.30;;;;;;5007712;28;20225;-70
2022/08/03 12:17:57;;;;;;;3.38;2.10;;;30.20;88.00;;;;;;5007527;28;20581;-70
2022/08/03 12:20:27;;;;;;;1.65;1.60;;;30.10;90.00;;;;;;5007665;28;20216;-70
2022/08/03 12:22:55;;;;;;;2.70;1.80;;;30.10;90.20;;;;;;5007795;28;20193;-70
2022/08/03 12:25:23;;;;;;;2.53;1.77;;;30.10;90.30;;;;;;5007475;28;20336;-70
2022/08/03 12:27:51;;;;;;;1.95;1.83;;;30.10;90.80;;;;;;5007376;28;20585;-70
2022/08/03 12:30:18;;;;;;;1.67;1.58;;;30.00;89.10;;;;;;5007859;28;20209;-70
2022/08/03 12:32:46;;;;;;;2.67;2.03;;;30.00;86.60;;;;;;5007295;28;20581;-70
2022/08/03 12:35:23;;;;;;;1.92;1.83;;;30.00;87.20;;;;;;5007462;28;20211;-70
2022/08/03 12:37:50;;;;;;;2.45;1.73;;;30.10;87.30;;;;;;5007891;28;20190;-70
2022/08/03 12:40:25;;;;;;;1.92;1.83;;;30.10;85.60;;;;;;5007372;28;20236;-70
2022/08/03 12:42:51;;;;;;;2.53;2.17;;;30.10;86.10;;;;;;5007907;28;20197;-70
2022/08/03 12:45:20;;;;;;;1.80;1.70;;;30.10;86.60;;;;;;5007604;28;20237;-70
2022/08/03 12:47:52;;;;;;;2.00;1.90;;;30.10;86.50;;;;;;5007639;28;20224;-70
2022/08/03 12:50:27;;;;;;;4.43;1.83;;;30.00;86.80;;;;;;5007515;28;20209;-70
2022/08/03 12:52:54;;;;;;;2.97;1.92;;;30.00;87.10;;;;;;5008961;28;20239;-70
2022/08/03 12:55:22;;;;;;;4.57;2.22;;;30.00;86.60;;;;;;5010668;28;20557;-70
2022/08/03 12:57:49;;;;;;;3.17;2.03;;;30.10;86.00;;;;;;5010711;28;20241;-70
2022/08/03 13:00:18;;;;;;;4.05;2.47;;;30.40;85.80;;;;;;5011135;28;20201;-70
2022/08/03 13:02:45;;;;;;;1.88;1.77;;;30.30;86.60;;;;;;5010760;28;20724;-70
2022/08/03 13:05:14;;;;;;;2.10;2.00;;;30.30;87.30;;;;;;5010820;28;20233;-70
2022/08/03 13:07:43;;;;;;;2.03;1.92;;;30.40;85.70;;;;;;5010613;28;20201;-70